createdAt,value
2017-11-05T00:00:14.092Z,86.42
2017-11-05T00:01:17.716Z,86.42
2017-11-05T00:02:21.382Z,86.36
2017-11-05T00:03:25.011Z,86.35
2017-11-05T00:04:28.619Z,86.34
2017-11-05T00:05:32.505Z,86.64
2017-11-05T00:06:36.150Z,86.57
2017-11-05T00:07:39.757Z,87.08
2017-11-05T00:08:43.354Z,86.49
2017-11-05T00:09:47.034Z,85.75
2017-11-05T00:10:50.696Z,86.50
2017-11-05T00:11:54.469Z,86.29
2017-11-05T00:12:58.377Z,85.59
2017-11-05T00:14:02.191Z,86.18
2017-11-05T00:15:06.105Z,86.20
2017-11-05T00:16:09.877Z,86.09
2017-11-05T00:17:15.204Z,85.77
2017-11-05T00:18:19.515Z,86.04
2017-11-05T00:19:23.889Z,85.41
2017-11-05T00:20:28.153Z,85.00
2017-11-05T00:21:31.956Z,84.63
2017-11-05T00:22:35.757Z,84.12
2017-11-05T00:23:39.820Z,83.46
2017-11-05T00:24:44.383Z,84.19
2017-11-05T00:25:48.162Z,84.65
2017-11-05T00:26:51.917Z,84.07
2017-11-05T00:27:55.721Z,84.42
2017-11-05T00:28:59.478Z,84.46
2017-11-05T00:30:03.582Z,83.87
2017-11-05T00:31:08.266Z,83.86
2017-11-05T00:32:11.957Z,84.12
2017-11-05T00:33:15.650Z,84.86
2017-11-05T00:34:19.345Z,84.88
2017-11-05T00:35:23.016Z,84.68
2017-11-05T00:36:26.995Z,84.67
2017-11-05T00:37:30.882Z,84.59
2017-11-05T00:38:34.617Z,85.00
2017-11-05T00:39:38.309Z,85.10
2017-11-05T00:40:41.962Z,85.01
2017-11-05T00:41:45.638Z,85.27
2017-11-05T00:42:49.739Z,85.44
2017-11-05T00:43:53.400Z,85.57
2017-11-05T00:44:57.087Z,86.12
2017-11-05T00:46:00.776Z,86.20
2017-11-05T00:47:04.485Z,85.83
2017-11-05T00:48:08.084Z,86.01
2017-11-05T00:49:11.669Z,86.02
2017-11-05T00:50:15.278Z,86.37
2017-11-05T00:51:18.882Z,86.40
2017-11-05T00:52:22.510Z,85.94
2017-11-05T00:53:26.148Z,85.72
2017-11-05T00:54:30.052Z,86.15
2017-11-05T00:55:33.793Z,86.01
2017-11-05T00:56:37.478Z,86.02
2017-11-05T00:57:41.097Z,86.22
2017-11-05T00:58:44.890Z,86.12
2017-11-05T00:59:48.557Z,86.54
2017-11-05T01:00:52.546Z,86.20
2017-11-05T01:01:56.195Z,86.28
2017-11-05T01:02:59.872Z,85.86
2017-11-05T01:04:03.536Z,86.52
2017-11-05T01:05:07.380Z,86.70
2017-11-05T01:06:11.016Z,86.59
2017-11-05T01:07:14.880Z,86.11
2017-11-05T01:08:18.480Z,86.27
2017-11-05T01:09:22.073Z,86.03
2017-11-05T01:10:25.706Z,85.42
2017-11-05T01:11:29.355Z,85.51
2017-11-05T01:12:33.382Z,85.30
2017-11-05T01:13:37.252Z,85.17
2017-11-05T01:14:40.882Z,85.43
2017-11-05T01:15:44.533Z,85.27
2017-11-05T01:16:48.135Z,85.10
2017-11-05T01:17:51.815Z,85.31
2017-11-05T01:18:55.409Z,85.61
2017-11-05T01:19:59.331Z,85.92
2017-11-05T01:21:03.371Z,85.25
2017-11-05T01:22:06.967Z,84.96
2017-11-05T01:23:11.841Z,84.63
2017-11-05T01:24:15.455Z,84.12
2017-11-05T01:25:19.058Z,84.31
2017-11-05T01:26:23.080Z,85.09
2017-11-05T01:27:26.777Z,84.86
2017-11-05T01:28:30.549Z,85.06
2017-11-05T01:29:34.205Z,85.50
2017-11-05T01:30:37.983Z,85.44
2017-11-05T01:31:41.679Z,85.47
2017-11-05T01:32:45.615Z,85.28
2017-11-05T01:33:49.284Z,84.98
2017-11-05T01:34:52.890Z,84.71
2017-11-05T01:35:56.501Z,84.66
2017-11-05T01:37:00.089Z,85.07
2017-11-05T01:38:03.692Z,85.18
2017-11-05T01:39:07.560Z,85.56
2017-11-05T01:40:11.145Z,85.69
2017-11-05T01:41:14.745Z,85.70
2017-11-05T01:42:18.332Z,85.66
2017-11-05T01:43:21.893Z,85.66
2017-11-05T01:44:25.424Z,85.22
2017-11-05T01:45:29.212Z,84.19
2017-11-05T01:46:32.769Z,84.49
2017-11-05T01:47:36.385Z,84.78
2017-11-05T01:48:39.893Z,85.45
2017-11-05T01:49:43.414Z,85.62
2017-11-05T01:50:46.920Z,86.28
2017-11-05T01:51:50.702Z,86.14
2017-11-05T01:52:54.349Z,85.36
2017-11-05T01:53:57.929Z,85.96
2017-11-05T01:55:01.623Z,85.56
2017-11-05T01:56:05.211Z,85.21
2017-11-05T01:57:08.807Z,84.33
2017-11-05T01:58:12.697Z,84.87
2017-11-05T01:59:16.337Z,85.08
2017-11-05T02:00:19.999Z,84.96
2017-11-05T02:01:23.599Z,84.94
2017-11-05T02:02:27.231Z,84.97
2017-11-05T02:03:30.828Z,84.97
2017-11-05T02:04:34.732Z,85.45
2017-11-05T02:05:38.354Z,85.21
2017-11-05T02:06:41.932Z,84.63
2017-11-05T02:07:45.534Z,84.90
2017-11-05T02:08:49.190Z,84.88
2017-11-05T02:09:52.793Z,84.59
2017-11-05T02:10:56.412Z,84.75
2017-11-05T02:12:00.107Z,84.60
2017-11-05T02:13:03.791Z,84.39
2017-11-05T02:14:07.479Z,84.97
2017-11-05T02:15:11.191Z,85.68
2017-11-05T02:16:15.140Z,85.96
2017-11-05T02:17:18.914Z,86.54
2017-11-05T02:18:22.681Z,86.72
2017-11-05T02:19:26.560Z,86.66
2017-11-05T02:20:30.353Z,85.86
2017-11-05T02:21:34.209Z,85.50
2017-11-05T02:22:38.319Z,85.42
2017-11-05T02:23:42.138Z,85.49
2017-11-05T02:24:45.874Z,86.38
2017-11-05T02:25:49.635Z,86.91
2017-11-05T02:26:53.386Z,86.84
2017-11-05T02:27:57.106Z,87.42
2017-11-05T02:29:01.153Z,88.23
2017-11-05T02:30:04.945Z,88.80
2017-11-05T02:31:08.762Z,89.24
2017-11-05T02:32:12.547Z,89.60
2017-11-05T02:33:16.310Z,90.16
2017-11-05T02:34:20.109Z,90.50
2017-11-05T02:35:24.194Z,90.84
2017-11-05T02:36:27.934Z,90.83
2017-11-05T02:37:31.714Z,90.96
2017-11-05T02:38:35.488Z,90.60
2017-11-05T02:39:39.300Z,90.60
2017-11-05T02:40:43.056Z,90.49
2017-11-05T02:41:47.113Z,90.29
2017-11-05T02:42:50.853Z,90.41
2017-11-05T02:43:54.598Z,90.57
2017-11-05T02:44:58.281Z,91.02
2017-11-05T02:46:01.964Z,90.73
2017-11-05T02:47:05.604Z,90.73
2017-11-05T02:48:09.516Z,90.38
2017-11-05T02:49:13.137Z,90.44
2017-11-05T02:50:16.771Z,90.29
2017-11-05T02:51:20.420Z,90.11
2017-11-05T02:52:25.488Z,89.94
2017-11-05T02:53:29.073Z,89.92
2017-11-05T02:54:32.911Z,89.83
2017-11-05T02:55:36.457Z,89.54
2017-11-05T02:56:40.109Z,89.31
2017-11-05T02:57:43.780Z,89.72
2017-11-05T02:58:47.522Z,89.63
2017-11-05T02:59:51.170Z,89.74
2017-11-05T03:00:55.164Z,90.41
2017-11-05T03:01:58.768Z,90.70
2017-11-05T03:03:02.394Z,90.90
2017-11-05T03:04:06.031Z,91.08
2017-11-05T03:05:09.664Z,91.85
2017-11-05T03:06:13.342Z,92.70
2017-11-05T03:07:17.254Z,93.31
2017-11-05T03:08:20.814Z,93.41
2017-11-05T03:09:25.274Z,93.75
2017-11-05T03:10:28.824Z,93.74
2017-11-05T03:11:32.505Z,94.20
2017-11-05T03:12:36.144Z,92.62
2017-11-05T03:13:41.002Z,93.04
2017-11-05T03:14:44.672Z,93.07
2017-11-05T03:15:48.306Z,93.16
2017-11-05T03:16:51.930Z,92.99
2017-11-05T03:17:55.529Z,93.36
2017-11-05T03:18:59.168Z,93.37
2017-11-05T03:20:03.113Z,94.14
2017-11-05T03:21:06.788Z,94.35
2017-11-05T03:22:10.400Z,94.41
2017-11-05T03:23:14.544Z,94.59
2017-11-05T03:24:18.178Z,94.95
2017-11-05T03:25:21.803Z,95.48
2017-11-05T03:26:25.774Z,95.26
2017-11-05T03:27:29.404Z,95.79
2017-11-05T03:28:33.064Z,95.85
2017-11-05T03:29:37.063Z,95.55
2017-11-05T03:30:40.545Z,95.62
2017-11-05T03:31:44.076Z,95.64
2017-11-05T03:32:47.839Z,95.33
2017-11-05T03:33:51.293Z,95.09
2017-11-05T03:34:54.824Z,94.67
2017-11-05T03:35:58.394Z,94.47
2017-11-05T03:37:01.955Z,94.24
2017-11-05T03:38:05.496Z,93.63
2017-11-05T03:39:09.252Z,93.19
2017-11-05T03:40:12.725Z,93.42
2017-11-05T03:41:16.187Z,92.74
2017-11-05T03:42:19.675Z,93.05
2017-11-05T03:43:23.148Z,92.88
2017-11-05T03:44:26.608Z,92.45
2017-11-05T03:45:30.349Z,92.35
2017-11-05T03:46:33.814Z,92.45
2017-11-05T03:47:37.359Z,92.55
2017-11-05T03:48:40.833Z,92.01
2017-11-05T03:49:44.327Z,91.95
2017-11-05T03:50:47.826Z,92.24
2017-11-05T03:51:51.590Z,92.77
2017-11-05T03:52:55.073Z,92.41
2017-11-05T03:53:58.498Z,92.59
2017-11-05T03:55:01.873Z,92.11
2017-11-05T03:57:24.356Z,92.26
2017-11-05T03:58:27.833Z,92.11
2017-11-05T03:59:31.437Z,92.36
2017-11-05T04:00:35.069Z,92.63
2017-11-05T04:01:38.699Z,92.05
2017-11-05T04:02:42.341Z,92.09
2017-11-05T04:03:45.972Z,92.08
2017-11-05T04:04:49.982Z,91.98
2017-11-05T04:05:53.616Z,92.24
2017-11-05T04:06:58.252Z,92.06
2017-11-05T04:08:01.815Z,91.43
2017-11-05T04:09:05.518Z,91.13
2017-11-05T04:10:09.601Z,91.37
2017-11-05T04:11:13.440Z,91.56
2017-11-05T04:12:17.028Z,90.82
2017-11-05T04:13:20.572Z,89.93
2017-11-05T04:14:24.187Z,90.22
2017-11-05T04:15:27.811Z,90.37
2017-11-05T04:16:31.470Z,90.59
2017-11-05T04:17:35.473Z,90.02
2017-11-05T04:18:39.085Z,90.45
2017-11-05T04:19:42.744Z,90.37
2017-11-05T04:20:46.366Z,91.32
2017-11-05T04:21:50.063Z,91.72
2017-11-05T04:22:53.722Z,91.87
2017-11-05T04:23:57.659Z,92.31
2017-11-05T04:25:01.273Z,91.52
2017-11-05T04:26:04.886Z,90.66
2017-11-05T04:27:08.535Z,90.62
2017-11-05T04:28:12.202Z,90.59
2017-11-05T04:29:15.855Z,90.43
2017-11-05T04:30:19.813Z,90.77
2017-11-05T04:31:23.474Z,91.04
2017-11-05T04:32:27.629Z,91.31
2017-11-05T04:33:31.304Z,91.31
2017-11-05T04:34:34.968Z,91.28
2017-11-05T04:35:38.666Z,90.87
2017-11-05T04:36:42.420Z,90.71
2017-11-05T04:37:45.968Z,90.59
2017-11-05T04:38:49.438Z,90.46
2017-11-05T04:39:52.923Z,90.03
2017-11-05T04:40:57.129Z,89.90
2017-11-05T04:42:00.638Z,89.39
2017-11-05T04:43:04.400Z,89.23
2017-11-05T04:44:07.965Z,88.87
2017-11-05T04:45:11.985Z,89.04
2017-11-05T04:46:15.460Z,88.93
2017-11-05T04:47:18.916Z,88.64
2017-11-05T04:48:22.393Z,88.54
2017-11-05T04:49:26.141Z,88.26
2017-11-05T04:50:29.611Z,88.00
2017-11-05T04:51:33.319Z,88.08
2017-11-05T04:52:37.043Z,88.34
2017-11-05T04:53:40.704Z,88.76
2017-11-05T04:54:44.345Z,89.41
2017-11-05T04:55:48.270Z,89.10
2017-11-05T04:56:52.094Z,89.30
2017-11-05T04:57:55.804Z,89.24
2017-11-05T04:59:00.452Z,89.64
2017-11-05T05:00:04.160Z,89.89
2017-11-05T05:01:07.798Z,90.04
2017-11-05T05:02:11.716Z,90.11
2017-11-05T05:03:15.270Z,90.03
2017-11-05T05:04:18.822Z,90.43
2017-11-05T05:05:22.369Z,90.57
2017-11-05T05:06:25.905Z,90.63
2017-11-05T05:07:29.470Z,90.79
2017-11-05T05:08:33.320Z,90.71
2017-11-05T05:09:36.865Z,90.83
2017-11-05T05:10:40.392Z,90.87
2017-11-05T05:11:44.115Z,90.14
2017-11-05T05:12:47.745Z,90.71
2017-11-05T05:13:51.391Z,90.26
2017-11-05T05:14:55.288Z,90.18
2017-11-05T05:15:58.911Z,89.95
2017-11-05T05:17:02.590Z,89.95
2017-11-05T05:18:06.275Z,89.52
2017-11-05T05:19:09.944Z,89.79
2017-11-05T05:20:13.654Z,89.94
2017-11-05T05:21:17.654Z,90.32
2017-11-05T05:22:21.272Z,89.82
2017-11-05T05:23:24.912Z,89.03
2017-11-05T05:24:28.579Z,89.31
2017-11-05T05:25:32.198Z,89.09
2017-11-05T05:26:35.861Z,89.06
2017-11-05T05:27:39.739Z,88.91
2017-11-05T05:28:43.352Z,89.15
2017-11-05T05:29:47.010Z,89.89
2017-11-05T05:30:50.645Z,90.36
2017-11-05T05:31:54.264Z,90.75
2017-11-05T05:32:57.908Z,91.05
2017-11-05T05:34:01.908Z,91.45
2017-11-05T05:35:05.590Z,92.04
2017-11-05T05:36:09.284Z,92.14
2017-11-05T05:37:12.910Z,92.08
2017-11-05T05:38:16.559Z,92.01
2017-11-05T05:39:20.209Z,91.59
2017-11-05T05:40:24.376Z,91.27
2017-11-05T05:41:28.243Z,90.65
2017-11-05T05:42:31.911Z,89.91
2017-11-05T05:43:35.586Z,88.90
2017-11-05T05:44:39.230Z,89.27
2017-11-05T05:45:42.862Z,89.66
2017-11-05T05:46:46.784Z,89.84
2017-11-05T05:47:50.493Z,89.71
2017-11-05T05:48:54.225Z,89.66
2017-11-05T05:49:57.872Z,88.39
2017-11-05T05:51:01.462Z,88.05
2017-11-05T05:52:05.107Z,87.92
2017-11-05T05:53:09.043Z,88.16
2017-11-05T05:54:12.760Z,88.17
2017-11-05T05:55:16.439Z,88.46
2017-11-05T05:56:20.067Z,88.71
2017-11-05T05:57:23.699Z,88.61
2017-11-05T05:58:27.366Z,88.35
2017-11-05T05:59:31.326Z,88.41
2017-11-05T06:00:34.996Z,88.96
2017-11-05T06:01:38.644Z,89.45
2017-11-05T06:02:42.269Z,88.67
2017-11-05T06:03:45.884Z,89.01
2017-11-05T06:04:49.505Z,88.55
2017-11-05T06:05:53.405Z,88.29
2017-11-05T06:06:57.081Z,88.76
2017-11-05T06:08:00.723Z,89.10
2017-11-05T06:09:04.905Z,88.67
2017-11-05T06:10:08.572Z,89.13
2017-11-05T06:11:12.125Z,89.58
2017-11-05T06:12:15.925Z,90.00
2017-11-05T06:13:19.528Z,90.31
2017-11-05T06:14:23.099Z,90.23
2017-11-05T06:15:26.689Z,90.54
2017-11-05T06:16:30.274Z,89.78
2017-11-05T06:17:34.019Z,89.04
2017-11-05T06:18:37.975Z,89.27
2017-11-05T06:19:41.607Z,89.59
2017-11-05T06:20:45.089Z,90.63
2017-11-05T06:21:48.478Z,91.58
2017-11-05T06:22:51.880Z,91.27
2017-11-05T06:23:55.255Z,90.90
2017-11-05T06:24:58.932Z,90.42
2017-11-05T06:26:02.468Z,90.37
2017-11-05T06:27:06.080Z,90.49
2017-11-05T06:28:09.677Z,90.33
2017-11-05T06:29:13.260Z,89.59
2017-11-05T06:30:16.893Z,89.87
2017-11-05T06:31:20.713Z,90.06
2017-11-05T06:32:24.305Z,89.35
2017-11-05T06:33:27.824Z,89.61
2017-11-05T06:34:31.383Z,90.79
2017-11-05T06:35:34.969Z,92.04
2017-11-05T06:36:38.543Z,92.82
2017-11-05T06:37:42.368Z,94.17
2017-11-05T06:38:45.937Z,94.98
2017-11-05T06:39:49.763Z,95.94
2017-11-05T06:40:53.531Z,96.29
2017-11-05T06:41:57.214Z,96.08
2017-11-05T06:43:01.167Z,95.15
2017-11-05T06:44:05.257Z,95.40
2017-11-05T06:45:09.003Z,95.38
2017-11-05T06:46:12.748Z,95.51
2017-11-05T06:47:16.506Z,95.19
2017-11-05T06:48:20.197Z,94.62
2017-11-05T06:49:23.873Z,93.29
2017-11-05T06:50:27.906Z,93.20
2017-11-05T06:51:31.548Z,93.02
2017-11-05T06:52:35.199Z,93.39
2017-11-05T06:53:38.851Z,92.84
2017-11-05T06:54:42.692Z,92.68
2017-11-05T06:55:46.351Z,92.63
2017-11-05T06:56:50.266Z,92.40
2017-11-05T06:57:53.910Z,91.58
2017-11-05T06:58:57.611Z,91.83
2017-11-05T07:00:01.428Z,91.95
2017-11-05T07:01:05.249Z,91.62
2017-11-05T07:02:08.951Z,91.28
2017-11-05T07:03:13.075Z,91.61
2017-11-05T07:04:16.735Z,91.34
2017-11-05T07:05:20.465Z,91.10
2017-11-05T07:06:24.206Z,90.44
2017-11-05T07:07:27.836Z,91.00
2017-11-05T07:08:31.488Z,91.00
2017-11-05T07:09:35.328Z,90.78
2017-11-05T07:10:38.895Z,90.20
2017-11-05T07:11:42.469Z,89.38
2017-11-05T07:12:46.049Z,89.88
2017-11-05T07:13:49.625Z,90.64
2017-11-05T07:14:53.204Z,90.21
2017-11-05T07:15:57.108Z,90.36
2017-11-05T07:17:00.677Z,90.64
2017-11-05T07:18:04.248Z,90.33
2017-11-05T07:19:07.845Z,91.01
2017-11-05T07:20:11.427Z,91.10
2017-11-05T07:21:15.146Z,90.80
2017-11-05T07:22:19.144Z,90.64
2017-11-05T07:23:22.778Z,91.27
2017-11-05T07:24:26.442Z,90.82
2017-11-05T07:25:30.140Z,90.96
2017-11-05T07:26:33.799Z,90.63
2017-11-05T07:27:37.284Z,90.15
2017-11-05T07:28:41.133Z,90.75
2017-11-05T07:29:44.754Z,90.82
2017-11-05T07:30:48.248Z,90.46
2017-11-05T07:31:51.807Z,91.11
2017-11-05T07:32:55.422Z,91.32
2017-11-05T07:33:59.105Z,91.55
2017-11-05T07:35:03.079Z,92.41
2017-11-05T07:36:06.753Z,91.94
2017-11-05T07:37:10.434Z,91.67
2017-11-05T07:38:14.107Z,91.73
2017-11-05T07:39:17.752Z,91.18
2017-11-05T07:40:21.411Z,91.33
2017-11-05T07:41:25.437Z,91.23
2017-11-05T07:42:29.160Z,90.60
2017-11-05T07:43:32.817Z,89.70
2017-11-05T07:44:36.472Z,90.61
2017-11-05T07:45:40.092Z,90.81
2017-11-05T07:46:44.240Z,89.89
2017-11-05T07:47:48.226Z,89.47
2017-11-05T07:48:51.865Z,89.92
2017-11-05T07:49:55.500Z,89.89
2017-11-05T07:50:59.183Z,90.10
2017-11-05T07:52:02.845Z,90.00
2017-11-05T07:53:06.528Z,89.69
2017-11-05T07:54:10.451Z,89.44
2017-11-05T07:55:14.132Z,90.34
2017-11-05T07:56:17.971Z,90.54
2017-11-05T07:57:21.944Z,90.63
2017-11-05T07:58:25.553Z,90.48
2017-11-05T07:59:29.191Z,90.14
2017-11-05T08:00:34.178Z,90.68
2017-11-05T08:01:39.057Z,90.03
2017-11-05T08:02:42.605Z,90.95
2017-11-05T08:03:46.140Z,90.69
2017-11-05T08:04:49.632Z,91.54
2017-11-05T08:05:53.140Z,90.93
2017-11-05T08:06:56.934Z,91.25
2017-11-05T08:08:00.420Z,91.40
2017-11-05T08:09:04.183Z,90.81
2017-11-05T08:10:07.707Z,91.05
2017-11-05T08:11:11.197Z,90.98
2017-11-05T08:12:14.692Z,91.36
2017-11-05T08:13:18.635Z,91.34
2017-11-05T08:14:22.385Z,91.66
2017-11-05T08:15:26.157Z,91.50
2017-11-05T08:16:29.902Z,91.41
2017-11-05T08:17:33.772Z,91.67
2017-11-05T08:18:37.454Z,91.58
2017-11-05T08:19:41.388Z,91.95
2017-11-05T08:20:45.048Z,91.87
2017-11-05T08:21:48.721Z,91.59
2017-11-05T08:22:52.373Z,91.61
2017-11-05T08:23:56.288Z,91.81
2017-11-05T08:24:59.949Z,91.62
2017-11-05T08:26:03.938Z,92.19
2017-11-05T08:27:07.641Z,92.34
2017-11-05T08:28:11.292Z,91.99
2017-11-05T08:29:14.943Z,91.85
2017-11-05T08:30:19.081Z,92.09
2017-11-05T08:31:22.691Z,92.41
2017-11-05T08:32:26.669Z,92.19
2017-11-05T08:33:30.356Z,92.59
2017-11-05T08:34:34.108Z,92.86
2017-11-05T08:35:37.804Z,92.56
2017-11-05T08:36:41.499Z,92.74
2017-11-05T08:37:45.168Z,92.94
2017-11-05T08:38:49.131Z,92.63
2017-11-05T08:39:52.864Z,93.10
2017-11-05T08:40:56.536Z,92.35
2017-11-05T08:42:00.240Z,93.07
2017-11-05T08:43:03.975Z,92.43
2017-11-05T08:44:07.693Z,92.84
2017-11-05T08:45:11.366Z,92.37
2017-11-05T08:46:15.029Z,92.52
2017-11-05T08:47:18.710Z,92.58
2017-11-05T08:48:22.347Z,92.23
2017-11-05T08:49:26.048Z,92.71
2017-11-05T08:50:30.237Z,92.56
2017-11-05T08:51:33.956Z,92.22
2017-11-05T08:52:37.750Z,92.51
2017-11-05T08:53:42.353Z,90.71
2017-11-05T08:54:46.016Z,91.80
2017-11-05T08:55:49.756Z,90.83
2017-11-05T08:56:53.683Z,90.95
2017-11-05T08:57:57.396Z,89.54
2017-11-05T08:59:01.057Z,90.07
2017-11-05T09:00:04.782Z,89.15
2017-11-05T09:01:08.551Z,89.38
2017-11-05T09:02:12.225Z,89.37
2017-11-05T09:03:15.921Z,88.72
2017-11-05T09:04:19.599Z,88.56
2017-11-05T09:05:23.333Z,88.59
2017-11-05T09:06:27.132Z,88.98
2017-11-05T09:07:30.926Z,89.60
2017-11-05T09:08:34.985Z,89.37
2017-11-05T09:09:38.769Z,89.22
2017-11-05T09:10:42.510Z,89.13
2017-11-05T09:11:46.260Z,90.39
2017-11-05T09:12:49.997Z,89.86
2017-11-05T09:13:53.756Z,89.81
2017-11-05T09:14:57.811Z,89.30
2017-11-05T09:16:01.690Z,89.20
2017-11-05T09:17:05.317Z,88.40
2017-11-05T09:18:09.015Z,89.01
2017-11-05T09:19:12.671Z,89.13
2017-11-05T09:20:16.361Z,88.38
2017-11-05T09:21:20.292Z,88.36
2017-11-05T09:22:24.003Z,88.66
2017-11-05T09:23:27.692Z,88.59
2017-11-05T09:24:31.429Z,89.57
2017-11-05T09:25:35.132Z,89.61
2017-11-05T09:26:38.963Z,89.26
2017-11-05T09:27:42.963Z,89.55
2017-11-05T09:28:46.628Z,90.04
2017-11-05T09:29:50.293Z,89.66
2017-11-05T09:30:54.060Z,90.09
2017-11-05T09:31:57.747Z,90.60
2017-11-05T09:33:01.362Z,90.72
2017-11-05T09:34:05.444Z,90.48
2017-11-05T09:35:09.293Z,90.57
2017-11-05T09:36:13.045Z,90.40
2017-11-05T09:37:16.836Z,90.38
2017-11-05T09:38:20.499Z,90.78
2017-11-05T09:39:24.292Z,91.13
2017-11-05T09:40:28.474Z,91.35
2017-11-05T09:41:32.231Z,90.79
2017-11-05T09:42:36.153Z,91.25
2017-11-05T09:43:40.190Z,91.13
2017-11-05T09:44:43.991Z,90.89
2017-11-05T09:45:47.722Z,90.62
2017-11-05T09:46:51.463Z,91.27
2017-11-05T09:47:55.300Z,91.57
2017-11-05T09:48:59.070Z,90.67
2017-11-05T09:50:03.322Z,90.34
2017-11-05T09:51:07.113Z,89.92
2017-11-05T09:52:11.225Z,90.10
2017-11-05T09:53:15.757Z,89.39
2017-11-05T09:54:19.447Z,89.60
2017-11-05T09:55:23.129Z,90.01
2017-11-05T09:56:26.907Z,89.96
2017-11-05T09:57:30.784Z,90.79
2017-11-05T09:58:34.875Z,90.30
2017-11-05T09:59:38.699Z,90.51
2017-11-05T10:00:42.500Z,89.46
2017-11-05T10:01:46.309Z,89.48
2017-11-05T10:02:50.063Z,89.51
2017-11-05T10:03:53.752Z,88.97
2017-11-05T10:04:57.829Z,89.09
2017-11-05T10:06:01.620Z,87.98
2017-11-05T10:07:05.755Z,87.90
2017-11-05T10:08:09.485Z,88.07
2017-11-05T10:09:13.161Z,88.22
2017-11-05T10:10:16.879Z,88.46
2017-11-05T10:11:20.763Z,87.67
2017-11-05T10:12:24.423Z,87.25
2017-11-05T10:13:28.225Z,86.99
2017-11-05T10:14:31.870Z,86.97
2017-11-05T10:15:35.543Z,87.75
2017-11-05T10:16:39.223Z,87.29
2017-11-05T10:17:43.227Z,86.22
2017-11-05T10:18:46.946Z,86.80
2017-11-05T10:19:50.662Z,87.75
2017-11-05T10:20:54.393Z,87.85
2017-11-05T10:21:58.095Z,87.51
2017-11-05T10:23:01.761Z,87.48
2017-11-05T10:24:05.946Z,87.04
2017-11-05T10:25:09.654Z,87.70
2017-11-05T10:26:13.295Z,88.16
2017-11-05T10:27:17.005Z,87.70
2017-11-05T10:28:20.691Z,87.15
2017-11-05T10:29:24.423Z,86.84
2017-11-05T10:30:28.636Z,86.84
2017-11-05T10:31:32.417Z,87.14
2017-11-05T10:32:36.124Z,86.99
2017-11-05T10:33:39.785Z,87.92
2017-11-05T10:34:43.430Z,88.13
2017-11-05T10:35:47.105Z,87.54
2017-11-05T10:36:51.346Z,86.41
2017-11-05T10:37:55.105Z,87.35
2017-11-05T10:38:58.925Z,87.01
2017-11-05T10:40:02.704Z,86.60
2017-11-05T10:41:06.554Z,86.96
2017-11-05T10:51:06.961Z,88.32
2017-11-05T10:52:11.057Z,88.16
2017-11-05T10:53:14.803Z,88.20
2017-11-05T10:54:18.434Z,87.84
2017-11-05T10:55:22.088Z,88.33
2017-11-05T10:56:25.970Z,88.25
2017-11-05T10:57:30.651Z,87.75
2017-11-05T10:58:34.418Z,86.24
2017-11-05T10:59:38.241Z,85.66
2017-11-05T11:00:41.986Z,85.87
2017-11-05T11:01:45.798Z,86.81
2017-11-05T11:02:49.593Z,87.05
2017-11-05T11:03:53.633Z,87.64
2017-11-05T11:04:57.521Z,86.49
2017-11-05T11:06:01.236Z,85.87
2017-11-05T11:07:05.126Z,86.26
2017-11-05T11:08:08.874Z,85.70
2017-11-05T11:09:12.668Z,85.90
2017-11-05T11:10:17.303Z,85.00
2017-11-05T11:11:21.251Z,85.20
2017-11-05T11:16:39.263Z,63.64
2017-11-05T11:17:43.400Z,71.02
2017-11-05T11:18:47.184Z,75.56
2017-11-05T11:19:50.982Z,78.70
2017-11-05T11:20:54.747Z,80.09
2017-11-05T11:21:58.825Z,81.12
2017-11-05T11:23:02.620Z,81.17
2017-11-05T11:24:06.405Z,80.83
2017-11-05T11:25:10.164Z,81.33
2017-11-05T11:26:13.935Z,81.77
2017-11-05T11:27:17.738Z,80.80
2017-11-05T11:28:21.818Z,80.65
2017-11-05T11:29:25.657Z,80.45
2017-11-05T11:30:29.503Z,80.25
2017-11-05T11:31:33.237Z,80.01
2017-11-05T11:32:36.949Z,79.61
2017-11-05T11:33:40.649Z,79.42
2017-11-05T11:34:44.650Z,79.11
2017-11-05T11:35:48.392Z,78.85
2017-11-05T11:36:52.084Z,78.49
2017-11-05T11:37:55.833Z,78.45
2017-11-05T11:38:59.603Z,78.54
2017-11-05T11:40:03.454Z,77.42
2017-11-05T11:41:07.477Z,78.04
2017-11-05T11:42:11.232Z,78.67
2017-11-05T11:43:14.931Z,77.74
2017-11-05T11:44:18.655Z,77.90
2017-11-05T11:45:22.341Z,77.74
2017-11-05T11:46:26.167Z,77.18
2017-11-05T11:47:30.169Z,75.26
2017-11-05T11:48:33.961Z,76.67
2017-11-05T11:49:37.683Z,76.33
2017-11-05T11:50:41.355Z,75.81
2017-11-05T11:51:45.024Z,75.36
2017-11-05T11:52:48.822Z,75.72
2017-11-05T11:53:52.721Z,76.12
2017-11-05T11:54:56.283Z,75.50
2017-11-05T11:55:59.790Z,76.34
2017-11-05T11:57:04.188Z,75.85
2017-11-05T11:58:07.664Z,75.21
2017-11-05T11:59:11.163Z,76.12
2017-11-05T12:00:14.929Z,74.14
2017-11-05T12:01:18.438Z,75.41
2017-11-05T12:02:21.962Z,75.30
2017-11-05T12:03:25.546Z,76.05
2017-11-05T12:04:29.432Z,77.23
2017-11-05T12:05:33.392Z,76.56
2017-11-05T12:06:37.489Z,76.57
2017-11-05T12:07:41.083Z,76.89
2017-11-05T12:08:44.889Z,76.55
2017-11-05T12:09:48.562Z,75.86
2017-11-05T12:10:52.126Z,74.69
2017-11-05T12:11:55.729Z,74.80
2017-11-05T12:12:59.449Z,75.26
2017-11-05T12:14:03.127Z,72.78
2017-11-05T12:15:06.816Z,73.49
2017-11-05T12:16:10.606Z,72.58
2017-11-05T12:17:14.818Z,72.73
2017-11-05T12:18:18.706Z,73.54
2017-11-05T12:19:22.523Z,72.90
2017-11-05T12:20:26.332Z,72.55
2017-11-05T12:21:30.117Z,71.57
2017-11-05T12:22:33.866Z,71.39
2017-11-05T12:23:37.706Z,70.19
2017-11-05T12:24:41.442Z,69.82
2017-11-05T12:25:45.100Z,71.26
2017-11-05T12:26:48.811Z,70.20
2017-11-05T12:27:52.808Z,74.70
2017-11-05T12:30:04.370Z,59.30
2017-11-05T12:31:08.135Z,64.94
2017-11-05T12:32:12.087Z,68.46
2017-11-05T12:33:15.868Z,71.39
2017-11-05T12:34:19.862Z,73.38
2017-11-05T12:35:23.832Z,75.33
2017-11-05T12:36:27.745Z,77.00
2017-11-05T12:37:31.675Z,77.15
2017-11-05T12:38:35.394Z,77.25
2017-11-05T12:39:39.213Z,77.42
2017-11-05T12:40:43.017Z,77.31
2017-11-05T12:41:46.838Z,77.34
2017-11-05T12:42:50.603Z,76.79
2017-11-05T12:43:54.267Z,77.64
2017-11-05T12:44:57.921Z,78.27
2017-11-05T12:46:01.967Z,79.60
2017-11-05T12:47:05.749Z,79.08
2017-11-05T12:48:09.556Z,78.25
2017-11-05T12:49:13.311Z,78.69
2017-11-05T12:50:17.071Z,78.26
2017-11-05T12:51:20.824Z,78.99
2017-11-05T12:52:24.786Z,78.99
2017-11-05T12:53:28.457Z,80.48
2017-11-05T12:54:32.125Z,80.26
2017-11-05T12:55:35.820Z,79.50
2017-11-05T12:56:39.517Z,78.73
2017-11-05T12:57:43.271Z,77.64
2017-11-05T12:58:47.309Z,78.71
2017-11-05T12:59:51.059Z,78.10
2017-11-05T13:00:54.804Z,79.42
2017-11-05T13:01:58.687Z,79.87
2017-11-05T13:03:02.536Z,79.08
2017-11-05T13:04:06.297Z,79.73
2017-11-05T13:05:10.599Z,80.75
2017-11-05T13:06:14.351Z,80.98
2017-11-05T13:07:18.143Z,81.21
2017-11-05T13:08:21.938Z,81.09
2017-11-05T13:09:25.606Z,81.74
2017-11-05T13:10:29.321Z,81.68
2017-11-05T13:11:33.230Z,80.53
2017-11-05T13:12:36.896Z,80.42
2017-11-05T13:13:40.899Z,81.57
2017-11-05T13:14:44.608Z,82.20
2017-11-05T13:15:48.331Z,82.43
2017-11-05T13:16:52.021Z,82.64
2017-11-05T13:17:55.625Z,83.23
2017-11-05T13:18:59.226Z,82.58
2017-11-05T13:20:02.898Z,83.16
2017-11-05T13:21:06.647Z,83.35
2017-11-05T13:22:10.574Z,83.25
2017-11-05T13:23:13.987Z,83.61
2017-11-05T13:24:17.811Z,83.99
2017-11-05T13:25:21.439Z,83.22
2017-11-05T13:26:25.018Z,83.37
2017-11-05T13:27:28.614Z,83.33
2017-11-05T13:28:32.176Z,83.19
2017-11-05T13:29:35.825Z,83.09
2017-11-05T13:30:39.649Z,82.44
2017-11-05T13:31:43.231Z,82.53
2017-11-05T13:32:46.829Z,82.68
2017-11-05T13:33:50.415Z,82.40
2017-11-05T13:34:54.053Z,82.50
2017-11-05T13:35:57.672Z,82.84
2017-11-05T13:37:01.324Z,83.11
2017-11-05T13:38:04.946Z,82.84
2017-11-05T13:39:08.611Z,82.90
2017-11-05T13:40:12.174Z,83.22
2017-11-05T13:41:15.701Z,83.23
2017-11-05T13:42:19.328Z,83.49
2017-11-05T13:43:22.848Z,84.27
2017-11-05T13:44:26.335Z,84.11
2017-11-05T13:45:29.820Z,83.63
2017-11-05T13:46:33.334Z,83.82
2017-11-05T13:47:36.964Z,83.46
2017-11-05T13:48:41.174Z,82.87
2017-11-05T13:49:44.743Z,83.09
2017-11-05T13:50:48.342Z,81.91
2017-11-05T13:51:51.956Z,81.45
2017-11-05T13:52:55.532Z,81.22
2017-11-05T13:53:59.140Z,81.54
2017-11-05T13:55:02.714Z,81.38
2017-11-05T13:56:06.288Z,79.80